sensor_id;sensor_type;location;lat;lon;timestamp;P1;durP1;ratioP1;P2;durP2;ratioP2
29570;SDS011;16814;52.118;11.436;2023-02-12T00:00:06;18.02;;;12.88;;
29570;SDS011;16814;52.118;11.436;2023-02-12T00:02:34;18.02;;;12.75;;
29570;SDS011;16814;52.118;11.436;2023-02-12T00:05:01;17.02;;;13.15;;
29570;SDS011;16814;52.118;11.436;2023-02-12T00:07:29;17.25;;;12.93;;
29570;SDS011;16814;52.118;11.436;2023-02-12T00:09:57;19.63;;;12.80;;
29570;SDS011;16814;52.118;11.436;2023-02-12T00:12:22;16.83;;;12.60;;
29570;SDS011;16814;52.118;11.436;2023-02-12T00:14:49;17.77;;;12.93;;
29570;SDS011;16814;52.118;11.436;2023-02-12T00:17:15;19.42;;;12.68;;
29570;SDS011;16814;52.118;11.436;2023-02-12T00:19:43;19.33;;;13.27;;
29570;SDS011;16814;52.118;11.436;2023-02-12T00:22:10;18.17;;;12.50;;
29570;SDS011;16814;52.118;11.436;2023-02-12T00:24:38;20.63;;;13.55;;
29570;SDS011;16814;52.118;11.436;2023-02-12T00:27:06;22.23;;;14.00;;
29570;SDS011;16814;52.118;11.436;2023-02-12T00:29:32;19.13;;;13.55;;
29570;SDS011;16814;52.118;11.436;2023-02-12T00:31:59;20.20;;;13.45;;
29570;SDS011;16814;52.118;11.436;2023-02-12T00:34:26;19.27;;;13.40;;
29570;SDS011;16814;52.118;11.436;2023-02-12T00:36:53;18.60;;;13.67;;
29570;SDS011;16814;52.118;11.436;2023-02-12T00:39:20;18.83;;;13.55;;
29570;SDS011;16814;52.118;11.436;2023-02-12T00:41:50;21.27;;;14.40;;
29570;SDS011;16814;52.118;11.436;2023-02-12T00:44:16;19.38;;;14.25;;
29570;SDS011;16814;52.118;11.436;2023-02-12T00:46:43;19.13;;;14.30;;
29570;SDS011;16814;52.118;11.436;2023-02-12T00:49:09;19.70;;;14.07;;
29570;SDS011;16814;52.118;11.436;2023-02-12T00:51:38;18.55;;;13.80;;
29570;SDS011;16814;52.118;11.436;2023-02-12T00:54:05;21.38;;;14.55;;
29570;SDS011;16814;52.118;11.436;2023-02-12T00:56:31;22.15;;;14.63;;
29570;SDS011;16814;52.118;11.436;2023-02-12T00:58:59;20.38;;;14.32;;
29570;SDS011;16814;52.118;11.436;2023-02-12T01:01:26;19.80;;;14.75;;
29570;SDS011;16814;52.118;11.436;2023-02-12T01:03:53;20.20;;;14.38;;
29570;SDS011;16814;52.118;11.436;2023-02-12T01:06:20;23.60;;;14.07;;
29570;SDS011;16814;52.118;11.436;2023-02-12T01:08:50;19.92;;;14.20;;
29570;SDS011;16814;52.118;11.436;2023-02-12T01:11:16;19.80;;;15.30;;
29570;SDS011;16814;52.118;11.436;2023-02-12T01:13:44;21.92;;;14.82;;
29570;SDS011;16814;52.118;11.436;2023-02-12T01:16:16;19.25;;;14.35;;
29570;SDS011;16814;52.118;11.436;2023-02-12T01:18:47;19.38;;;14.10;;
29570;SDS011;16814;52.118;11.436;2023-02-12T01:21:19;20.30;;;14.00;;
29570;SDS011;16814;52.118;11.436;2023-02-12T01:23:52;18.85;;;13.73;;
29570;SDS011;16814;52.118;11.436;2023-02-12T01:26:20;18.33;;;14.00;;
29570;SDS011;16814;52.118;11.436;2023-02-12T01:28:52;20.80;;;14.30;;
29570;SDS011;16814;52.118;11.436;2023-02-12T01:31:21;20.23;;;14.40;;
29570;SDS011;16814;52.118;11.436;2023-02-12T01:33:50;23.65;;;14.30;;
29570;SDS011;16814;52.118;11.436;2023-02-12T01:36:19;17.38;;;13.60;;
29570;SDS011;16814;52.118;11.436;2023-02-12T01:38:45;21.35;;;14.15;;
29570;SDS011;16814;52.118;11.436;2023-02-12T01:41:16;19.80;;;13.75;;
29570;SDS011;16814;52.118;11.436;2023-02-12T01:44:02;20.05;;;14.27;;
29570;SDS011;16814;52.118;11.436;2023-02-12T01:46:30;19.63;;;15.05;;
29570;SDS011;16814;52.118;11.436;2023-02-12T01:48:57;19.80;;;14.30;;
29570;SDS011;16814;52.118;11.436;2023-02-12T01:51:26;18.67;;;13.23;;
29570;SDS011;16814;52.118;11.436;2023-02-12T01:53:53;24.98;;;14.35;;
29570;SDS011;16814;52.118;11.436;2023-02-12T01:56:22;18.95;;;14.55;;
29570;SDS011;16814;52.118;11.436;2023-02-12T01:58:50;18.27;;;13.52;;
29570;SDS011;16814;52.118;11.436;2023-02-12T02:01:22;20.80;;;14.13;;
29570;SDS011;16814;52.118;11.436;2023-02-12T02:04:04;20.77;;;14.00;;
29570;SDS011;16814;52.118;11.436;2023-02-12T02:06:35;19.40;;;13.70;;
29570;SDS011;16814;52.118;11.436;2023-02-12T02:09:08;22.13;;;13.48;;
29570;SDS011;16814;52.118;11.436;2023-02-12T02:11:35;17.55;;;12.82;;
29570;SDS011;16814;52.118;11.436;2023-02-12T02:14:20;17.10;;;12.40;;
29570;SDS011;16814;52.118;11.436;2023-02-12T02:17:08;18.63;;;12.60;;
29570;SDS011;16814;52.118;11.436;2023-02-12T02:20:05;16.63;;;11.88;;
29570;SDS011;16814;52.118;11.436;2023-02-12T02:31:50;17.95;;;10.93;;
29570;SDS011;16814;52.118;11.436;2023-02-12T02:34:39;17.73;;;11.60;;
29570;SDS011;16814;52.118;11.436;2023-02-12T02:42:54;15.57;;;10.85;;
29570;SDS011;16814;52.118;11.436;2023-02-12T02:48:12;16.13;;;10.70;;
29570;SDS011;16814;52.118;11.436;2023-02-12T02:50:43;15.60;;;11.77;;
29570;SDS011;16814;52.118;11.436;2023-02-12T02:53:18;16.55;;;11.65;;
29570;SDS011;16814;52.118;11.436;2023-02-12T02:55:50;17.93;;;12.00;;
29570;SDS011;16814;52.118;11.436;2023-02-12T02:58:31;19.52;;;12.68;;
29570;SDS011;16814;52.118;11.436;2023-02-12T03:01:20;17.80;;;12.50;;
29570;SDS011;16814;52.118;11.436;2023-02-12T03:04:21;15.45;;;12.00;;
29570;SDS011;16814;52.118;11.436;2023-02-12T03:07:05;19.35;;;11.52;;
29570;SDS011;16814;52.118;11.436;2023-02-12T03:09:45;16.25;;;12.57;;
29570;SDS011;16814;52.118;11.436;2023-02-12T03:12:27;19.08;;;12.15;;
29570;SDS011;16814;52.118;11.436;2023-02-12T03:15:16;18.33;;;12.10;;
29570;SDS011;16814;52.118;11.436;2023-02-12T03:18:17;16.40;;;12.18;;
29570;SDS011;16814;52.118;11.436;2023-02-12T03:20:49;17.45;;;12.68;;
29570;SDS011;16814;52.118;11.436;2023-02-12T03:23:30;17.63;;;12.32;;
29570;SDS011;16814;52.118;11.436;2023-02-12T03:26:10;22.08;;;13.38;;
29570;SDS011;16814;52.118;11.436;2023-02-12T03:28:46;20.38;;;13.25;;
29570;SDS011;16814;52.118;11.436;2023-02-12T03:42:23;22.33;;;12.90;;
29570;SDS011;16814;52.118;11.436;2023-02-12T03:44:59;21.92;;;13.63;;
29570;SDS011;16814;52.118;11.436;2023-02-12T03:50:52;24.90;;;14.07;;
29570;SDS011;16814;52.118;11.436;2023-02-12T03:53:23;24.33;;;14.05;;
29570;SDS011;16814;52.118;11.436;2023-02-12T03:55:54;23.63;;;14.05;;
29570;SDS011;16814;52.118;11.436;2023-02-12T03:58:25;26.80;;;15.98;;
29570;SDS011;16814;52.118;11.436;2023-02-12T04:01:01;26.98;;;15.95;;
29570;SDS011;16814;52.118;11.436;2023-02-12T04:03:30;27.25;;;16.23;;
29570;SDS011;16814;52.118;11.436;2023-02-12T04:05:56;27.52;;;16.35;;
29570;SDS011;16814;52.118;11.436;2023-02-12T04:08:23;33.55;;;16.30;;
29570;SDS011;16814;52.118;11.436;2023-02-12T04:11:09;34.60;;;17.17;;
29570;SDS011;16814;52.118;11.436;2023-02-12T04:13:48;30.42;;;17.13;;
29570;SDS011;16814;52.118;11.436;2023-02-12T04:16:47;32.35;;;16.90;;
29570;SDS011;16814;52.118;11.436;2023-02-12T04:19:41;29.75;;;16.70;;
29570;SDS011;16814;52.118;11.436;2023-02-12T04:28:18;28.92;;;17.05;;
29570;SDS011;16814;52.118;11.436;2023-02-12T04:31:01;28.20;;;16.30;;
29570;SDS011;16814;52.118;11.436;2023-02-12T04:33:44;28.05;;;16.13;;
29570;SDS011;16814;52.118;11.436;2023-02-12T04:36:20;25.20;;;15.43;;
29570;SDS011;16814;52.118;11.436;2023-02-12T04:38:53;28.02;;;15.70;;
29570;SDS011;16814;52.118;11.436;2023-02-12T04:41:23;24.03;;;15.07;;
29570;SDS011;16814;52.118;11.436;2023-02-12T04:43:51;25.35;;;16.30;;
29570;SDS011;16814;52.118;11.436;2023-02-12T04:46:18;25.65;;;14.65;;
29570;SDS011;16814;52.118;11.436;2023-02-12T04:48:54;25.33;;;14.98;;
29570;SDS011;16814;52.118;11.436;2023-02-12T04:51:29;28.48;;;15.25;;
29570;SDS011;16814;52.118;11.436;2023-02-12T04:53:55;25.10;;;14.27;;
29570;SDS011;16814;52.118;11.436;2023-02-12T04:56:20;24.75;;;14.05;;
29570;SDS011;16814;52.118;11.436;2023-02-12T04:58:47;22.90;;;13.80;;
29570;SDS011;16814;52.118;11.436;2023-02-12T05:01:14;26.02;;;14.50;;
29570;SDS011;16814;52.118;11.436;2023-02-12T05:03:42;24.35;;;13.93;;
29570;SDS011;16814;52.118;11.436;2023-02-12T05:06:10;24.48;;;14.52;;
29570;SDS011;16814;52.118;11.436;2023-02-12T05:08:37;25.33;;;14.27;;
29570;SDS011;16814;52.118;11.436;2023-02-12T05:11:03;24.20;;;14.60;;
29570;SDS011;16814;52.118;11.436;2023-02-12T05:13:33;22.92;;;13.65;;
29570;SDS011;16814;52.118;11.436;2023-02-12T05:16:03;27.20;;;14.32;;
29570;SDS011;16814;52.118;11.436;2023-02-12T05:18:33;24.67;;;14.05;;
29570;SDS011;16814;52.118;11.436;2023-02-12T05:21:00;22.85;;;13.52;;
29570;SDS011;16814;52.118;11.436;2023-02-12T05:23:30;26.27;;;14.23;;
29570;SDS011;16814;52.118;11.436;2023-02-12T05:26:02;27.27;;;13.93;;
29570;SDS011;16814;52.118;11.436;2023-02-12T05:28:37;24.95;;;13.27;;
29570;SDS011;16814;52.118;11.436;2023-02-12T05:31:04;24.08;;;13.30;;
29570;SDS011;16814;52.118;11.436;2023-02-12T05:33:31;24.98;;;13.65;;
29570;SDS011;16814;52.118;11.436;2023-02-12T05:36:02;25.10;;;13.32;;
29570;SDS011;16814;52.118;11.436;2023-02-12T05:38:32;24.77;;;13.20;;
29570;SDS011;16814;52.118;11.436;2023-02-12T05:41:06;23.17;;;13.07;;
29570;SDS011;16814;52.118;11.436;2023-02-12T05:43:39;24.95;;;12.90;;
29570;SDS011;16814;52.118;11.436;2023-02-12T05:46:17;20.48;;;13.07;;
29570;SDS011;16814;52.118;11.436;2023-02-12T05:48:44;24.15;;;13.60;;
29570;SDS011;16814;52.118;11.436;2023-02-12T05:51:13;23.67;;;13.10;;
29570;SDS011;16814;52.118;11.436;2023-02-12T05:53:48;22.90;;;13.50;;
29570;SDS011;16814;52.118;11.436;2023-02-12T05:58:47;18.23;;;11.50;;
29570;SDS011;16814;52.118;11.436;2023-02-12T06:01:19;23.48;;;12.93;;
29570;SDS011;16814;52.118;11.436;2023-02-12T06:03:47;20.70;;;12.27;;
29570;SDS011;16814;52.118;11.436;2023-02-12T06:06:13;23.83;;;12.90;;
29570;SDS011;16814;52.118;11.436;2023-02-12T06:08:40;21.67;;;13.32;;
29570;SDS011;16814;52.118;11.436;2023-02-12T06:11:09;24.75;;;14.43;;
29570;SDS011;16814;52.118;11.436;2023-02-12T06:13:37;28.27;;;15.25;;
29570;SDS011;16814;52.118;11.436;2023-02-12T06:16:04;32.37;;;15.87;;
29570;SDS011;16814;52.118;11.436;2023-02-12T06:18:31;28.00;;;15.57;;
29570;SDS011;16814;52.118;11.436;2023-02-12T06:21:04;34.30;;;16.48;;
29570;SDS011;16814;52.118;11.436;2023-02-12T06:23:29;32.20;;;16.30;;
29570;SDS011;16814;52.118;11.436;2023-02-12T06:25:57;30.67;;;16.58;;
29570;SDS011;16814;52.118;11.436;2023-02-12T06:28:24;29.88;;;15.93;;
29570;SDS011;16814;52.118;11.436;2023-02-12T06:30:52;32.72;;;16.92;;
29570;SDS011;16814;52.118;11.436;2023-02-12T06:33:17;30.00;;;15.15;;
29570;SDS011;16814;52.118;11.436;2023-02-12T06:35:43;31.33;;;15.70;;
29570;SDS011;16814;52.118;11.436;2023-02-12T06:38:11;29.08;;;15.70;;
29570;SDS011;16814;52.118;11.436;2023-02-12T06:40:38;26.17;;;14.63;;
29570;SDS011;16814;52.118;11.436;2023-02-12T06:43:06;25.08;;;14.55;;
29570;SDS011;16814;52.118;11.436;2023-02-12T06:45:34;28.70;;;15.10;;
29570;SDS011;16814;52.118;11.436;2023-02-12T06:48:01;26.35;;;14.40;;
29570;SDS011;16814;52.118;11.436;2023-02-12T06:50:28;24.90;;;14.30;;
29570;SDS011;16814;52.118;11.436;2023-02-12T06:52:57;27.87;;;15.17;;
29570;SDS011;16814;52.118;11.436;2023-02-12T06:55:23;26.88;;;14.55;;
29570;SDS011;16814;52.118;11.436;2023-02-12T06:57:51;29.05;;;14.57;;
29570;SDS011;16814;52.118;11.436;2023-02-12T07:00:18;28.15;;;15.00;;
29570;SDS011;16814;52.118;11.436;2023-02-12T07:02:44;25.58;;;14.50;;
29570;SDS011;16814;52.118;11.436;2023-02-12T07:05:16;27.75;;;14.45;;
29570;SDS011;16814;52.118;11.436;2023-02-12T07:07:43;22.67;;;13.60;;
29570;SDS011;16814;52.118;11.436;2023-02-12T07:10:10;22.57;;;13.53;;
29570;SDS011;16814;52.118;11.436;2023-02-12T07:12:36;22.85;;;13.20;;
29570;SDS011;16814;52.118;11.436;2023-02-12T07:15:03;24.88;;;13.25;;
29570;SDS011;16814;52.118;11.436;2023-02-12T07:17:30;25.92;;;14.45;;
29570;SDS011;16814;52.118;11.436;2023-02-12T07:19:57;26.98;;;13.57;;
29570;SDS011;16814;52.118;11.436;2023-02-12T07:22:24;28.48;;;13.63;;
29570;SDS011;16814;52.118;11.436;2023-02-12T07:24:51;29.13;;;13.68;;
29570;SDS011;16814;52.118;11.436;2023-02-12T07:27:18;27.55;;;13.35;;
29570;SDS011;16814;52.118;11.436;2023-02-12T07:29:44;29.25;;;13.65;;
29570;SDS011;16814;52.118;11.436;2023-02-12T07:32:10;29.13;;;13.83;;
29570;SDS011;16814;52.118;11.436;2023-02-12T07:34:37;26.58;;;13.18;;
29570;SDS011;16814;52.118;11.436;2023-02-12T07:37:03;27.40;;;12.88;;
29570;SDS011;16814;52.118;11.436;2023-02-12T07:39:32;28.20;;;13.30;;
29570;SDS011;16814;52.118;11.436;2023-02-12T07:41:59;27.27;;;13.40;;
29570;SDS011;16814;52.118;11.436;2023-02-12T07:44:25;29.63;;;13.77;;
29570;SDS011;16814;52.118;11.436;2023-02-12T07:46:52;29.42;;;13.65;;
29570;SDS011;16814;52.118;11.436;2023-02-12T07:49:20;31.08;;;14.20;;
29570;SDS011;16814;52.118;11.436;2023-02-12T07:51:47;29.70;;;14.40;;
29570;SDS011;16814;52.118;11.436;2023-02-12T07:54:14;32.55;;;13.93;;
29570;SDS011;16814;52.118;11.436;2023-02-12T07:56:43;31.25;;;13.63;;
29570;SDS011;16814;52.118;11.436;2023-02-12T07:59:12;28.77;;;13.48;;
29570;SDS011;16814;52.118;11.436;2023-02-12T08:01:49;24.83;;;12.10;;
29570;SDS011;16814;52.118;11.436;2023-02-12T08:04:22;26.30;;;11.70;;
29570;SDS011;16814;52.118;11.436;2023-02-12T08:06:50;24.40;;;12.38;;
29570;SDS011;16814;52.118;11.436;2023-02-12T08:09:21;22.83;;;11.45;;
29570;SDS011;16814;52.118;11.436;2023-02-12T08:11:49;19.15;;;9.55;;
29570;SDS011;16814;52.118;11.436;2023-02-12T08:14:18;15.77;;;8.43;;
29570;SDS011;16814;52.118;11.436;2023-02-12T08:16:48;17.53;;;7.50;;
29570;SDS011;16814;52.118;11.436;2023-02-12T08:19:17;17.00;;;8.55;;
29570;SDS011;16814;52.118;11.436;2023-02-12T08:21:50;18.98;;;9.60;;
29570;SDS011;16814;52.118;11.436;2023-02-12T08:24:18;18.77;;;9.45;;
29570;SDS011;16814;52.118;11.436;2023-02-12T08:26:46;19.02;;;9.50;;
29570;SDS011;16814;52.118;11.436;2023-02-12T08:29:15;18.67;;;10.35;;
29570;SDS011;16814;52.118;11.436;2023-02-12T08:31:44;18.80;;;10.40;;
29570;SDS011;16814;52.118;11.436;2023-02-12T08:34:15;18.95;;;10.35;;
29570;SDS011;16814;52.118;11.436;2023-02-12T08:36:44;22.70;;;9.47;;
29570;SDS011;16814;52.118;11.436;2023-02-12T08:39:11;18.25;;;9.80;;
29570;SDS011;16814;52.118;11.436;2023-02-12T08:41:38;21.80;;;10.80;;
29570;SDS011;16814;52.118;11.436;2023-02-12T08:44:08;20.02;;;10.77;;
29570;SDS011;16814;52.118;11.436;2023-02-12T08:46:38;26.25;;;15.10;;
29570;SDS011;16814;52.118;11.436;2023-02-12T08:49:18;24.73;;;15.47;;
29570;SDS011;16814;52.118;11.436;2023-02-12T08:51:51;22.23;;;13.05;;
29570;SDS011;16814;52.118;11.436;2023-02-12T08:54:19;26.45;;;13.55;;
29570;SDS011;16814;52.118;11.436;2023-02-12T08:56:47;25.13;;;14.30;;
29570;SDS011;16814;52.118;11.436;2023-02-12T08:59:14;33.13;;;18.52;;
29570;SDS011;16814;52.118;11.436;2023-02-12T09:01:41;30.45;;;18.17;;
29570;SDS011;16814;52.118;11.436;2023-02-12T09:04:09;29.50;;;17.98;;
29570;SDS011;16814;52.118;11.436;2023-02-12T09:06:39;31.20;;;18.15;;
29570;SDS011;16814;52.118;11.436;2023-02-12T09:09:04;32.67;;;18.37;;
29570;SDS011;16814;52.118;11.436;2023-02-12T09:11:32;30.33;;;18.43;;
29570;SDS011;16814;52.118;11.436;2023-02-12T09:13:59;37.55;;;20.50;;
29570;SDS011;16814;52.118;11.436;2023-02-12T09:16:27;31.67;;;19.30;;
29570;SDS011;16814;52.118;11.436;2023-02-12T09:18:54;32.60;;;18.23;;
29570;SDS011;16814;52.118;11.436;2023-02-12T09:21:20;27.63;;;16.43;;
29570;SDS011;16814;52.118;11.436;2023-02-12T09:23:46;31.33;;;18.77;;
29570;SDS011;16814;52.118;11.436;2023-02-12T09:26:13;31.90;;;21.00;;
29570;SDS011;16814;52.118;11.436;2023-02-12T09:28:41;42.15;;;24.55;;
29570;SDS011;16814;52.118;11.436;2023-02-12T09:31:09;29.25;;;17.65;;
29570;SDS011;16814;52.118;11.436;2023-02-12T09:33:36;30.92;;;18.95;;
29570;SDS011;16814;52.118;11.436;2023-02-12T09:36:03;34.25;;;20.52;;
29570;SDS011;16814;52.118;11.436;2023-02-12T09:38:30;33.03;;;20.65;;
29570;SDS011;16814;52.118;11.436;2023-02-12T09:46:49;26.67;;;15.95;;
29570;SDS011;16814;52.118;11.436;2023-02-12T09:52:05;22.15;;;15.13;;
29570;SDS011;16814;52.118;11.436;2023-02-12T09:54:38;25.60;;;15.00;;
29570;SDS011;16814;52.118;11.436;2023-02-12T09:57:06;21.80;;;13.32;;
29570;SDS011;16814;52.118;11.436;2023-02-12T09:59:50;21.75;;;12.85;;
29570;SDS011;16814;52.118;11.436;2023-02-12T10:02:20;18.93;;;12.10;;
29570;SDS011;16814;52.118;11.436;2023-02-12T10:04:47;19.60;;;12.07;;
29570;SDS011;16814;52.118;11.436;2023-02-12T10:12:45;14.45;;;10.02;;
29570;SDS011;16814;52.118;11.436;2023-02-12T10:18:01;15.27;;;10.10;;
29570;SDS011;16814;52.118;11.436;2023-02-12T10:20:51;15.45;;;9.85;;
29570;SDS011;16814;52.118;11.436;2023-02-12T10:25:52;15.13;;;9.93;;
29570;SDS011;16814;52.118;11.436;2023-02-12T10:28:23;16.70;;;9.55;;
29570;SDS011;16814;52.118;11.436;2023-02-12T10:30:57;17.50;;;9.50;;
29570;SDS011;16814;52.118;11.436;2023-02-12T10:33:34;15.30;;;9.43;;
29570;SDS011;16814;52.118;11.436;2023-02-12T10:39:00;16.15;;;9.10;;
29570;SDS011;16814;52.118;11.436;2023-02-12T10:41:48;15.43;;;8.60;;
29570;SDS011;16814;52.118;11.436;2023-02-12T10:44:33;15.55;;;9.43;;
29570;SDS011;16814;52.118;11.436;2023-02-12T10:46:59;13.70;;;8.95;;
29570;SDS011;16814;52.118;11.436;2023-02-12T10:49:25;13.93;;;8.73;;
29570;SDS011;16814;52.118;11.436;2023-02-12T10:54:42;15.65;;;9.43;;
29570;SDS011;16814;52.118;11.436;2023-02-12T10:59:37;14.82;;;9.63;;
29570;SDS011;16814;52.118;11.436;2023-02-12T11:02:04;22.83;;;9.45;;
29570;SDS011;16814;52.118;11.436;2023-02-12T11:04:50;14.82;;;9.05;;
29570;SDS011;16814;52.118;11.436;2023-02-12T11:07:18;13.85;;;8.73;;
29570;SDS011;16814;52.118;11.436;2023-02-12T11:09:44;16.40;;;10.43;;
29570;SDS011;16814;52.118;11.436;2023-02-12T11:12:19;15.50;;;8.43;;
29570;SDS011;16814;52.118;11.436;2023-02-12T11:14:51;14.85;;;8.82;;
29570;SDS011;16814;52.118;11.436;2023-02-12T11:17:23;13.80;;;9.00;;
29570;SDS011;16814;52.118;11.436;2023-02-12T11:20:31;15.10;;;8.07;;
29570;SDS011;16814;52.118;11.436;2023-02-12T11:23:35;13.13;;;8.52;;
29570;SDS011;16814;52.118;11.436;2023-02-12T11:28:22;14.02;;;8.32;;
29570;SDS011;16814;52.118;11.436;2023-02-12T11:31:01;14.07;;;8.40;;
29570;SDS011;16814;52.118;11.436;2023-02-12T11:33:34;12.70;;;8.00;;
29570;SDS011;16814;52.118;11.436;2023-02-12T11:36:14;17.02;;;8.75;;
29570;SDS011;16814;52.118;11.436;2023-02-12T11:38:48;18.23;;;9.20;;
29570;SDS011;16814;52.118;11.436;2023-02-12T11:41:34;14.27;;;8.30;;
29570;SDS011;16814;52.118;11.436;2023-02-12T11:44:11;15.15;;;8.77;;
29570;SDS011;16814;52.118;11.436;2023-02-12T11:46:56;15.55;;;8.45;;
29570;SDS011;16814;52.118;11.436;2023-02-12T11:49:28;13.55;;;8.07;;
29570;SDS011;16814;52.118;11.436;2023-02-12T11:51:56;14.35;;;8.05;;
29570;SDS011;16814;52.118;11.436;2023-02-12T11:54:26;15.05;;;7.72;;
29570;SDS011;16814;52.118;11.436;2023-02-12T11:56:55;15.27;;;8.95;;
29570;SDS011;16814;52.118;11.436;2023-02-12T11:59:26;12.33;;;7.83;;
29570;SDS011;16814;52.118;11.436;2023-02-12T12:02:08;13.50;;;8.77;;
29570;SDS011;16814;52.118;11.436;2023-02-12T12:04:40;17.45;;;7.95;;
29570;SDS011;16814;52.118;11.436;2023-02-12T12:07:28;14.07;;;8.07;;
29570;SDS011;16814;52.118;11.436;2023-02-12T12:10:06;19.23;;;10.68;;
29570;SDS011;16814;52.118;11.436;2023-02-12T12:18:33;15.57;;;8.70;;
29570;SDS011;16814;52.118;11.436;2023-02-12T12:24:13;15.95;;;8.00;;
29570;SDS011;16814;52.118;11.436;2023-02-12T12:26:55;14.32;;;7.85;;
29570;SDS011;16814;52.118;11.436;2023-02-12T12:32:16;17.23;;;8.27;;
29570;SDS011;16814;52.118;11.436;2023-02-12T12:34:45;20.10;;;10.50;;
29570;SDS011;16814;52.118;11.436;2023-02-12T12:45:18;18.33;;;11.07;;
29570;SDS011;16814;52.118;11.436;2023-02-12T12:48:11;17.65;;;9.57;;
29570;SDS011;16814;52.118;11.436;2023-02-12T12:51:00;18.85;;;9.20;;
29570;SDS011;16814;52.118;11.436;2023-02-12T12:53:45;15.33;;;8.83;;
29570;SDS011;16814;52.118;11.436;2023-02-12T13:07:17;18.42;;;10.63;;
29570;SDS011;16814;52.118;11.436;2023-02-12T13:23:25;19.42;;;11.20;;
29570;SDS011;16814;52.118;11.436;2023-02-12T13:26:24;20.20;;;11.13;;
29570;SDS011;16814;52.118;11.436;2023-02-12T13:29:40;18.98;;;10.73;;
29570;SDS011;16814;52.118;11.436;2023-02-12T13:34:48;21.60;;;11.07;;
29570;SDS011;16814;52.118;11.436;2023-02-12T13:37:17;21.90;;;12.13;;
29570;SDS011;16814;52.118;11.436;2023-02-12T13:40:05;19.80;;;12.30;;
29570;SDS011;16814;52.118;11.436;2023-02-12T13:44:59;21.03;;;11.43;;
29570;SDS011;16814;52.118;11.436;2023-02-12T13:53:00;17.73;;;10.02;;
29570;SDS011;16814;52.118;11.436;2023-02-12T13:58:49;17.90;;;9.65;;
29570;SDS011;16814;52.118;11.436;2023-02-12T14:01:35;19.17;;;10.32;;
29570;SDS011;16814;52.118;11.436;2023-02-12T14:06:59;17.05;;;9.50;;
29570;SDS011;16814;52.118;11.436;2023-02-12T14:12:14;22.35;;;13.02;;
29570;SDS011;16814;52.118;11.436;2023-02-12T14:14:43;23.43;;;13.97;;
29570;SDS011;16814;52.118;11.436;2023-02-12T14:20:05;23.50;;;13.90;;
29570;SDS011;16814;52.118;11.436;2023-02-12T14:30:20;22.95;;;13.73;;
29570;SDS011;16814;52.118;11.436;2023-02-12T14:35:33;23.88;;;13.48;;
29570;SDS011;16814;52.118;11.436;2023-02-12T14:38:02;29.80;;;13.88;;
29570;SDS011;16814;52.118;11.436;2023-02-12T14:40:45;26.40;;;14.77;;
29570;SDS011;16814;52.118;11.436;2023-02-12T14:43:25;29.13;;;15.10;;
29570;SDS011;16814;52.118;11.436;2023-02-12T14:48:52;29.83;;;14.35;;
29570;SDS011;16814;52.118;11.436;2023-02-12T14:54:03;27.65;;;13.25;;
29570;SDS011;16814;52.118;11.436;2023-02-12T14:56:51;25.52;;;14.25;;
29570;SDS011;16814;52.118;11.436;2023-02-12T14:59:20;22.42;;;12.65;;
29570;SDS011;16814;52.118;11.436;2023-02-12T15:01:48;24.48;;;13.18;;
29570;SDS011;16814;52.118;11.436;2023-02-12T15:04:18;20.95;;;12.55;;
29570;SDS011;16814;52.118;11.436;2023-02-12T15:06:51;32.33;;;18.48;;
29570;SDS011;16814;52.118;11.436;2023-02-12T15:12:34;38.38;;;23.40;;
29570;SDS011;16814;52.118;11.436;2023-02-12T15:15:06;39.22;;;23.77;;
29570;SDS011;16814;52.118;11.436;2023-02-12T15:17:52;41.33;;;24.85;;
29570;SDS011;16814;52.118;11.436;2023-02-12T15:20:22;46.28;;;27.30;;
29570;SDS011;16814;52.118;11.436;2023-02-12T15:22:52;45.67;;;27.67;;
29570;SDS011;16814;52.118;11.436;2023-02-12T15:25:30;51.00;;;28.70;;
29570;SDS011;16814;52.118;11.436;2023-02-12T15:28:17;53.10;;;29.73;;
29570;SDS011;16814;52.118;11.436;2023-02-12T15:30:49;52.63;;;30.23;;
29570;SDS011;16814;52.118;11.436;2023-02-12T15:33:40;52.33;;;30.85;;
29570;SDS011;16814;52.118;11.436;2023-02-12T15:36:06;53.40;;;29.98;;
29570;SDS011;16814;52.118;11.436;2023-02-12T15:38:34;54.95;;;32.28;;
29570;SDS011;16814;52.118;11.436;2023-02-12T15:41:02;50.72;;;29.73;;
29570;SDS011;16814;52.118;11.436;2023-02-12T15:43:30;52.45;;;31.35;;
29570;SDS011;16814;52.118;11.436;2023-02-12T15:45:59;55.45;;;32.53;;
29570;SDS011;16814;52.118;11.436;2023-02-12T15:48:31;50.85;;;30.27;;
29570;SDS011;16814;52.118;11.436;2023-02-12T15:51:04;54.35;;;32.13;;
29570;SDS011;16814;52.118;11.436;2023-02-12T15:53:34;53.27;;;31.17;;
29570;SDS011;16814;52.118;11.436;2023-02-12T15:56:02;54.05;;;31.13;;
29570;SDS011;16814;52.118;11.436;2023-02-12T15:58:32;49.35;;;29.75;;
29570;SDS011;16814;52.118;11.436;2023-02-12T16:01:06;53.70;;;31.40;;
29570;SDS011;16814;52.118;11.436;2023-02-12T16:03:33;53.00;;;31.33;;
29570;SDS011;16814;52.118;11.436;2023-02-12T16:06:03;54.88;;;31.60;;
29570;SDS011;16814;52.118;11.436;2023-02-12T16:08:39;55.38;;;33.08;;
29570;SDS011;16814;52.118;11.436;2023-02-12T16:11:09;51.58;;;30.95;;
29570;SDS011;16814;52.118;11.436;2023-02-12T16:13:48;59.10;;;33.20;;
29570;SDS011;16814;52.118;11.436;2023-02-12T16:16:28;56.88;;;33.72;;
29570;SDS011;16814;52.118;11.436;2023-02-12T16:19:18;57.72;;;33.17;;
29570;SDS011;16814;52.118;11.436;2023-02-12T16:21:54;58.80;;;33.70;;
29570;SDS011;16814;52.118;11.436;2023-02-12T16:24:49;55.92;;;32.08;;
29570;SDS011;16814;52.118;11.436;2023-02-12T16:27:24;51.95;;;30.30;;
29570;SDS011;16814;52.118;11.436;2023-02-12T16:32:56;51.22;;;30.63;;
29570;SDS011;16814;52.118;11.436;2023-02-12T16:35:28;57.25;;;32.70;;
29570;SDS011;16814;52.118;11.436;2023-02-12T16:41:18;53.15;;;30.48;;
29570;SDS011;16814;52.118;11.436;2023-02-12T16:43:49;56.47;;;31.88;;
29570;SDS011;16814;52.118;11.436;2023-02-12T16:46:45;55.95;;;32.05;;
29570;SDS011;16814;52.118;11.436;2023-02-12T16:49:19;58.37;;;32.47;;
29570;SDS011;16814;52.118;11.436;2023-02-12T16:51:49;59.20;;;32.97;;
29570;SDS011;16814;52.118;11.436;2023-02-12T16:54:25;59.83;;;33.53;;
29570;SDS011;16814;52.118;11.436;2023-02-12T16:56:56;65.07;;;38.00;;
29570;SDS011;16814;52.118;11.436;2023-02-12T16:59:22;64.88;;;36.38;;
29570;SDS011;16814;52.118;11.436;2023-02-12T17:04:29;58.55;;;33.80;;
29570;SDS011;16814;52.118;11.436;2023-02-12T17:06:57;60.28;;;34.10;;
29570;SDS011;16814;52.118;11.436;2023-02-12T17:09:23;60.17;;;33.97;;
29570;SDS011;16814;52.118;11.436;2023-02-12T17:11:48;58.83;;;31.47;;
29570;SDS011;16814;52.118;11.436;2023-02-12T17:14:16;59.60;;;33.35;;
29570;SDS011;16814;52.118;11.436;2023-02-12T17:16:44;60.90;;;33.88;;
29570;SDS011;16814;52.118;11.436;2023-02-12T17:19:11;57.85;;;33.05;;
29570;SDS011;16814;52.118;11.436;2023-02-12T17:21:45;58.72;;;32.88;;
29570;SDS011;16814;52.118;11.436;2023-02-12T17:24:17;59.95;;;32.55;;